Tillabery, Niger
Current Conditions -  °F | °C
As of 10:00 PM on Thursday 23 Oct 2014 (Local Time) from DRRN Reporting Station
Clear Clear  
Wind Chill: 90°   Ceiling: Unl
Heat Index: 90°   Visibility: 4mi
Dew Point: 48°   Wind: 5mph
Humidity: 24%   Direction: 100°E
Pressure: 29.88"   Gusts: NA
Location:  14.21°N, 1.45°E
Report Text: DRRN 232100Z 10004KT 6000 NSC 32/09 Q1012 NOSIG
Loading
Personal Weather Stations






























Interactive Weather Map
Tropical Storm Tracking
New forecast layout! Learn more

10-Day Weather Forecast

Advertisements
Track Severe Weather on mobile